sensor_id;sensor_type;location;lat;lon;timestamp;pressure;altitude;pressure_sealevel;temperature;humidity
31062;BME280;17724;53.546;9.974;2023-02-21T00:02:44;101261.16;;;9.39;100.00
31062;BME280;17724;53.546;9.974;2023-02-21T00:07:03;101275.00;;;9.32;100.00
31062;BME280;17724;53.546;9.974;2023-02-21T00:11:22;101280.03;;;9.24;100.00
31062;BME280;17724;53.546;9.974;2023-02-21T00:15:41;101276.34;;;9.42;100.00
31062;BME280;17724;53.546;9.974;2023-02-21T00:20:00;101289.91;;;9.25;100.00
31062;BME280;17724;53.546;9.974;2023-02-21T00:24:20;101289.09;;;9.24;100.00
31062;BME280;17724;53.546;9.974;2023-02-21T00:28:39;101276.81;;;9.15;100.00
31062;BME280;17724;53.546;9.974;2023-02-21T00:32:58;101292.06;;;9.11;100.00
31062;BME280;17724;53.546;9.974;2023-02-21T00:37:17;101293.50;;;9.25;100.00
31062;BME280;17724;53.546;9.974;2023-02-21T00:41:36;101293.03;;;9.28;100.00
31062;BME280;17724;53.546;9.974;2023-02-21T00:45:56;101301.97;;;9.24;100.00
31062;BME280;17724;53.546;9.974;2023-02-21T00:50:15;101304.81;;;9.17;100.00
31062;BME280;17724;53.546;9.974;2023-02-21T00:54:34;101312.91;;;9.00;100.00
31062;BME280;17724;53.546;9.974;2023-02-21T00:58:53;101302.66;;;8.96;100.00
31062;BME280;17724;53.546;9.974;2023-02-21T01:03:13;101298.97;;;9.02;100.00
31062;BME280;17724;53.546;9.974;2023-02-21T01:07:32;101298.63;;;8.98;100.00
31062;BME280;17724;53.546;9.974;2023-02-21T01:11:51;101308.44;;;9.18;100.00
31062;BME280;17724;53.546;9.974;2023-02-21T01:16:10;101310.44;;;9.10;100.00
31062;BME280;17724;53.546;9.974;2023-02-21T01:20:29;101291.78;;;8.89;100.00
31062;BME280;17724;53.546;9.974;2023-02-21T01:24:49;101308.38;;;8.94;100.00
31062;BME280;17724;53.546;9.974;2023-02-21T01:29:08;101304.56;;;8.95;100.00
31062;BME280;17724;53.546;9.974;2023-02-21T01:33:27;101293.59;;;8.95;100.00
31062;BME280;17724;53.546;9.974;2023-02-21T01:37:46;101310.28;;;8.94;100.00
31062;BME280;17724;53.546;9.974;2023-02-21T01:42:08;101294.16;;;8.85;100.00
31062;BME280;17724;53.546;9.974;2023-02-21T01:46:27;101304.31;;;8.97;100.00
31062;BME280;17724;53.546;9.974;2023-02-21T01:50:46;101310.16;;;9.00;100.00
31062;BME280;17724;53.546;9.974;2023-02-21T01:55:06;101291.69;;;8.96;100.00
31062;BME280;17724;53.546;9.974;2023-02-21T01:59:27;101303.38;;;8.91;100.00
31062;BME280;17724;53.546;9.974;2023-02-21T02:03:46;101310.28;;;9.05;100.00
31062;BME280;17724;53.546;9.974;2023-02-21T02:08:06;101301.69;;;8.90;100.00
31062;BME280;17724;53.546;9.974;2023-02-21T02:47:22;101311.53;;;8.68;100.00
31062;BME280;17724;53.546;9.974;2023-02-21T02:51:24;101313.31;;;8.62;100.00
31062;BME280;17724;53.546;9.974;2023-02-21T02:55:49;101324.09;;;8.57;100.00
31062;BME280;17724;53.546;9.974;2023-02-21T02:59:52;101309.97;;;8.72;100.00
31062;BME280;17724;53.546;9.974;2023-02-21T03:03:59;101314.22;;;8.86;100.00
31062;BME280;17724;53.546;9.974;2023-02-21T03:08:10;101318.81;;;8.74;100.00
31062;BME280;17724;53.546;9.974;2023-02-21T03:12:20;101314.13;;;8.62;100.00
31062;BME280;17724;53.546;9.974;2023-02-21T03:20:34;101316.53;;;8.41;100.00
31062;BME280;17724;53.546;9.974;2023-02-21T03:24:38;101325.94;;;8.63;100.00
31062;BME280;17724;53.546;9.974;2023-02-21T03:28:40;101316.16;;;8.67;100.00
31062;BME280;17724;53.546;9.974;2023-02-21T03:32:47;101313.09;;;8.75;100.00
31062;BME280;17724;53.546;9.974;2023-02-21T03:36:49;101317.16;;;8.84;100.00
31062;BME280;17724;53.546;9.974;2023-02-21T03:40:51;101313.19;;;8.69;100.00
31062;BME280;17724;53.546;9.974;2023-02-21T03:44:52;101313.38;;;8.55;100.00
31062;BME280;17724;53.546;9.974;2023-02-21T03:48:53;101323.91;;;8.58;100.00
31062;BME280;17724;53.546;9.974;2023-02-21T03:52:59;101308.41;;;8.64;100.00
31062;BME280;17724;53.546;9.974;2023-02-21T03:57:01;101327.00;;;8.62;100.00
31062;BME280;17724;53.546;9.974;2023-02-21T04:01:03;101333.78;;;8.59;100.00
31062;BME280;17724;53.546;9.974;2023-02-21T04:05:05;101334.47;;;8.55;100.00
31062;BME280;17724;53.546;9.974;2023-02-21T04:09:06;101328.75;;;8.56;100.00
31062;BME280;17724;53.546;9.974;2023-02-21T04:13:06;101342.13;;;8.64;100.00
31062;BME280;17724;53.546;9.974;2023-02-21T04:17:13;101340.84;;;8.67;100.00
31062;BME280;17724;53.546;9.974;2023-02-21T04:21:18;101337.81;;;8.57;100.00
31062;BME280;17724;53.546;9.974;2023-02-21T04:25:21;101343.63;;;8.79;100.00
31062;BME280;17724;53.546;9.974;2023-02-21T04:29:28;101345.25;;;8.68;100.00
31062;BME280;17724;53.546;9.974;2023-02-21T04:33:28;101344.44;;;8.49;100.00
31062;BME280;17724;53.546;9.974;2023-02-21T04:37:29;101345.00;;;8.58;100.00
31062;BME280;17724;53.546;9.974;2023-02-21T04:41:31;101342.19;;;8.76;100.00
31062;BME280;17724;53.546;9.974;2023-02-21T04:45:32;101342.59;;;8.61;100.00
31062;BME280;17724;53.546;9.974;2023-02-21T04:49:32;101349.13;;;8.30;100.00
31062;BME280;17724;53.546;9.974;2023-02-21T04:53:33;101343.78;;;7.99;100.00
31062;BME280;17724;53.546;9.974;2023-02-21T04:57:33;101344.25;;;7.96;100.00
31062;BME280;17724;53.546;9.974;2023-02-21T05:01:34;101341.75;;;7.94;100.00
31062;BME280;17724;53.546;9.974;2023-02-21T05:05:34;101341.25;;;7.97;100.00
31062;BME280;17724;53.546;9.974;2023-02-21T05:09:34;101338.91;;;8.01;100.00
31062;BME280;17724;53.546;9.974;2023-02-21T05:13:35;101338.63;;;7.90;100.00
31062;BME280;17724;53.546;9.974;2023-02-21T05:17:35;101329.91;;;7.57;100.00
31062;BME280;17724;53.546;9.974;2023-02-21T05:21:36;101339.66;;;7.71;100.00
31062;BME280;17724;53.546;9.974;2023-02-21T05:25:38;101347.63;;;7.73;100.00
31062;BME280;17724;53.546;9.974;2023-02-21T05:29:38;101362.63;;;7.70;100.00
31062;BME280;17724;53.546;9.974;2023-02-21T05:33:38;101352.03;;;7.74;100.00
31062;BME280;17724;53.546;9.974;2023-02-21T05:37:39;101364.59;;;7.81;100.00
31062;BME280;17724;53.546;9.974;2023-02-21T05:41:48;101372.44;;;7.78;100.00
31062;BME280;17724;53.546;9.974;2023-02-21T05:45:48;101363.88;;;7.74;100.00
31062;BME280;17724;53.546;9.974;2023-02-21T05:49:49;101374.56;;;7.76;100.00
31062;BME280;17724;53.546;9.974;2023-02-21T05:53:50;101388.22;;;7.57;100.00
31062;BME280;17724;53.546;9.974;2023-02-21T05:57:51;101392.56;;;7.65;100.00
31062;BME280;17724;53.546;9.974;2023-02-21T06:01:51;101388.09;;;7.71;100.00
31062;BME280;17724;53.546;9.974;2023-02-21T06:05:53;101394.47;;;7.64;100.00
31062;BME280;17724;53.546;9.974;2023-02-21T06:09:53;101389.91;;;7.58;100.00
31062;BME280;17724;53.546;9.974;2023-02-21T06:13:56;101400.97;;;7.70;100.00
31062;BME280;17724;53.546;9.974;2023-02-21T06:17:57;101402.53;;;7.59;100.00
31062;BME280;17724;53.546;9.974;2023-02-21T06:21:57;101409.34;;;7.75;100.00
31062;BME280;17724;53.546;9.974;2023-02-21T06:25:57;101414.91;;;7.62;100.00
31062;BME280;17724;53.546;9.974;2023-02-21T06:29:58;101423.56;;;7.84;100.00
31062;BME280;17724;53.546;9.974;2023-02-21T06:33:59;101435.38;;;7.84;100.00
31062;BME280;17724;53.546;9.974;2023-02-21T06:37:59;101422.69;;;7.65;100.00
31062;BME280;17724;53.546;9.974;2023-02-21T06:42:00;101441.28;;;7.81;100.00
31062;BME280;17724;53.546;9.974;2023-02-21T06:46:01;101438.09;;;7.84;100.00
31062;BME280;17724;53.546;9.974;2023-02-21T06:50:03;101447.59;;;7.82;100.00
31062;BME280;17724;53.546;9.974;2023-02-21T06:54:05;101452.34;;;7.93;100.00
31062;BME280;17724;53.546;9.974;2023-02-21T06:58:07;101451.22;;;8.01;100.00
31062;BME280;17724;53.546;9.974;2023-02-21T07:02:14;101441.63;;;7.92;100.00
31062;BME280;17724;53.546;9.974;2023-02-21T07:06:17;101446.41;;;7.96;100.00
31062;BME280;17724;53.546;9.974;2023-02-21T07:10:18;101447.09;;;7.92;100.00
31062;BME280;17724;53.546;9.974;2023-02-21T07:14:18;101447.09;;;7.92;100.00
31062;BME280;17724;53.546;9.974;2023-02-21T07:18:19;101458.66;;;7.94;100.00
31062;BME280;17724;53.546;9.974;2023-02-21T07:22:19;101457.13;;;7.98;100.00
31062;BME280;17724;53.546;9.974;2023-02-21T07:26:25;101463.78;;;8.08;100.00
31062;BME280;17724;53.546;9.974;2023-02-21T07:30:26;101465.00;;;8.12;100.00
31062;BME280;17724;53.546;9.974;2023-02-21T07:34:26;101474.16;;;8.25;100.00
31062;BME280;17724;53.546;9.974;2023-02-21T07:38:28;101480.63;;;8.12;100.00
31062;BME280;17724;53.546;9.974;2023-02-21T07:42:29;101479.50;;;8.20;100.00
31062;BME280;17724;53.546;9.974;2023-02-21T07:46:30;101476.88;;;8.06;100.00
31062;BME280;17724;53.546;9.974;2023-02-21T07:50:31;101488.78;;;8.19;100.00
31062;BME280;17724;53.546;9.974;2023-02-21T07:54:31;101502.78;;;8.29;100.00
31062;BME280;17724;53.546;9.974;2023-02-21T07:58:32;101494.16;;;8.07;100.00
31062;BME280;17724;53.546;9.974;2023-02-21T08:02:36;101503.47;;;8.24;100.00
31062;BME280;17724;53.546;9.974;2023-02-21T08:06:37;101494.66;;;8.22;100.00
31062;BME280;17724;53.546;9.974;2023-02-21T08:10:37;101514.59;;;8.29;100.00
31062;BME280;17724;53.546;9.974;2023-02-21T08:14:37;101507.06;;;8.50;100.00
31062;BME280;17724;53.546;9.974;2023-02-21T08:18:38;101510.13;;;8.35;100.00
31062;BME280;17724;53.546;9.974;2023-02-21T08:22:38;101524.13;;;8.70;100.00
31062;BME280;17724;53.546;9.974;2023-02-21T08:26:39;101516.28;;;8.74;100.00
31062;BME280;17724;53.546;9.974;2023-02-21T08:30:41;101516.69;;;8.89;100.00
31062;BME280;17724;53.546;9.974;2023-02-21T08:34:47;101526.78;;;8.95;100.00
31062;BME280;17724;53.546;9.974;2023-02-21T08:38:47;101524.34;;;8.69;100.00
31062;BME280;17724;53.546;9.974;2023-02-21T08:42:49;101527.84;;;8.94;100.00
31062;BME280;17724;53.546;9.974;2023-02-21T08:46:50;101540.09;;;8.73;100.00
31062;BME280;17724;53.546;9.974;2023-02-21T08:50:50;101541.03;;;8.67;100.00
31062;BME280;17724;53.546;9.974;2023-02-21T08:54:52;101520.59;;;9.00;100.00
31062;BME280;17724;53.546;9.974;2023-02-21T08:58:53;101543.19;;;9.13;100.00
31062;BME280;17724;53.546;9.974;2023-02-21T09:02:56;101538.34;;;9.16;100.00
31062;BME280;17724;53.546;9.974;2023-02-21T09:06:56;101538.16;;;9.29;100.00
31062;BME280;17724;53.546;9.974;2023-02-21T09:10:57;101549.63;;;9.26;100.00
31062;BME280;17724;53.546;9.974;2023-02-21T09:15:02;101552.94;;;9.46;100.00
31062;BME280;17724;53.546;9.974;2023-02-21T09:19:03;101548.72;;;9.44;100.00
31062;BME280;17724;53.546;9.974;2023-02-21T09:23:05;101563.34;;;9.56;100.00
31062;BME280;17724;53.546;9.974;2023-02-21T09:27:06;101556.69;;;9.63;100.00
31062;BME280;17724;53.546;9.974;2023-02-21T09:31:07;101572.78;;;9.60;100.00
31062;BME280;17724;53.546;9.974;2023-02-21T09:35:09;101569.16;;;9.78;100.00
31062;BME280;17724;53.546;9.974;2023-02-21T09:39:10;101554.97;;;9.51;100.00
31062;BME280;17724;53.546;9.974;2023-02-21T09:43:16;101577.03;;;9.74;100.00
31062;BME280;17724;53.546;9.974;2023-02-21T09:47:31;101588.75;;;9.51;100.00
31062;BME280;17724;53.546;9.974;2023-02-21T09:51:33;101592.00;;;9.60;100.00
31062;BME280;17724;53.546;9.974;2023-02-21T09:55:38;101582.34;;;9.69;100.00
31062;BME280;17724;53.546;9.974;2023-02-21T09:59:39;101596.53;;;9.96;100.00
31062;BME280;17724;53.546;9.974;2023-02-21T10:03:44;101605.38;;;9.86;100.00
31062;BME280;17724;53.546;9.974;2023-02-21T10:08:05;101595.41;;;9.74;100.00
31062;BME280;17724;53.546;9.974;2023-02-21T10:12:45;101597.97;;;9.57;100.00
31062;BME280;17724;53.546;9.974;2023-02-21T10:17:12;101603.00;;;9.90;100.00
31062;BME280;17724;53.546;9.974;2023-02-21T10:21:29;101597.22;;;10.22;100.00
31062;BME280;17724;53.546;9.974;2023-02-21T10:25:32;101597.28;;;10.45;100.00
31062;BME280;17724;53.546;9.974;2023-02-21T10:30:04;101589.50;;;10.54;100.00
31062;BME280;17724;53.546;9.974;2023-02-21T10:34:18;101606.47;;;10.39;100.00
31062;BME280;17724;53.546;9.974;2023-02-21T10:38:24;101605.66;;;10.74;100.00
31062;BME280;17724;53.546;9.974;2023-02-21T10:42:30;101606.22;;;10.88;100.00
31062;BME280;17724;53.546;9.974;2023-02-21T10:46:41;101628.69;;;11.08;100.00
31062;BME280;17724;53.546;9.974;2023-02-21T10:59:08;101618.44;;;10.92;100.00
31062;BME280;17724;53.546;9.974;2023-02-21T11:03:20;101636.13;;;10.96;100.00
31062;BME280;17724;53.546;9.974;2023-02-21T11:07:22;101621.31;;;10.62;99.29
31062;BME280;17724;53.546;9.974;2023-02-21T11:11:38;101622.34;;;11.19;100.00
31062;BME280;17724;53.546;9.974;2023-02-21T11:15:39;101618.78;;;11.07;100.00
31062;BME280;17724;53.546;9.974;2023-02-21T11:24:03;101613.66;;;10.99;97.26
31062;BME280;17724;53.546;9.974;2023-02-21T11:32:20;101610.84;;;11.22;99.05
31062;BME280;17724;53.546;9.974;2023-02-21T11:36:28;101609.91;;;11.05;98.88
31062;BME280;17724;53.546;9.974;2023-02-21T11:40:48;101607.22;;;10.70;98.86
31062;BME280;17724;53.546;9.974;2023-02-21T11:45:05;101625.03;;;10.91;98.78
31062;BME280;17724;53.546;9.974;2023-02-21T11:53:48;101608.13;;;10.99;99.94
31062;BME280;17724;53.546;9.974;2023-02-21T11:58:08;101601.94;;;10.80;100.00
31062;BME280;17724;53.546;9.974;2023-02-21T12:15:25;101593.19;;;10.36;100.00
31062;BME280;17724;53.546;9.974;2023-02-21T12:24:04;101608.25;;;10.57;100.00
31062;BME280;17724;53.546;9.974;2023-02-21T12:28:38;101602.19;;;10.78;100.00
31062;BME280;17724;53.546;9.974;2023-02-21T12:32:50;101594.66;;;10.50;100.00
31062;BME280;17724;53.546;9.974;2023-02-21T12:46:18;101594.06;;;9.65;100.00
31062;BME280;17724;53.546;9.974;2023-02-21T12:50:24;101588.94;;;9.68;100.00
31062;BME280;17724;53.546;9.974;2023-02-21T12:59:00;101593.34;;;9.69;100.00
31062;BME280;17724;53.546;9.974;2023-02-21T13:12:44;101587.63;;;9.71;100.00
31062;BME280;17724;53.546;9.974;2023-02-21T13:16:47;101595.25;;;9.69;100.00
31062;BME280;17724;53.546;9.974;2023-02-21T13:21:14;101591.56;;;9.63;100.00
31062;BME280;17724;53.546;9.974;2023-02-21T13:25:30;101596.13;;;9.81;100.00
31062;BME280;17724;53.546;9.974;2023-02-21T13:29:36;101600.63;;;9.63;100.00
31062;BME280;17724;53.546;9.974;2023-02-21T13:33:42;101602.59;;;9.75;100.00
31062;BME280;17724;53.546;9.974;2023-02-21T13:37:45;101605.31;;;10.17;100.00
31062;BME280;17724;53.546;9.974;2023-02-21T13:41:51;101608.28;;;10.33;100.00
31062;BME280;17724;53.546;9.974;2023-02-21T13:45:52;101597.06;;;10.17;100.00
31062;BME280;17724;53.546;9.974;2023-02-21T13:49:54;101594.38;;;10.40;100.00
31062;BME280;17724;53.546;9.974;2023-02-21T13:54:23;101597.50;;;10.55;100.00
31062;BME280;17724;53.546;9.974;2023-02-21T13:58:44;101590.09;;;10.56;100.00
31062;BME280;17724;53.546;9.974;2023-02-21T14:07:11;101597.63;;;10.72;100.00
31062;BME280;17724;53.546;9.974;2023-02-21T14:11:21;101600.84;;;10.93;100.00
31062;BME280;17724;53.546;9.974;2023-02-21T14:15:36;101576.56;;;10.90;100.00
31062;BME280;17724;53.546;9.974;2023-02-21T14:23:44;101586.75;;;10.89;100.00
31062;BME280;17724;53.546;9.974;2023-02-21T14:27:45;101592.00;;;10.55;100.00
31062;BME280;17724;53.546;9.974;2023-02-21T14:31:50;101595.47;;;10.51;100.00
31062;BME280;17724;53.546;9.974;2023-02-21T14:36:03;101600.72;;;10.64;100.00
31062;BME280;17724;53.546;9.974;2023-02-21T14:49:05;101589.25;;;10.32;100.00
31062;BME280;17724;53.546;9.974;2023-02-21T14:53:45;101589.16;;;10.62;100.00
31062;BME280;17724;53.546;9.974;2023-02-21T15:07:17;101601.22;;;10.49;100.00
31062;BME280;17724;53.546;9.974;2023-02-21T15:11:32;101594.75;;;10.32;100.00
31062;BME280;17724;53.546;9.974;2023-02-21T15:15:38;101609.09;;;10.34;100.00
31062;BME280;17724;53.546;9.974;2023-02-21T15:19:40;101611.00;;;10.57;100.00
31062;BME280;17724;53.546;9.974;2023-02-21T15:23:43;101608.16;;;10.64;100.00
31062;BME280;17724;53.546;9.974;2023-02-21T15:31:52;101596.91;;;10.77;100.00
31062;BME280;17724;53.546;9.974;2023-02-21T15:35:56;101607.91;;;10.77;100.00
31062;BME280;17724;53.546;9.974;2023-02-21T15:40:00;101609.09;;;10.81;100.00
31062;BME280;17724;53.546;9.974;2023-02-21T15:44:15;101615.31;;;10.76;100.00
31062;BME280;17724;53.546;9.974;2023-02-21T15:48:18;101611.16;;;10.74;100.00
31062;BME280;17724;53.546;9.974;2023-02-21T15:52:48;101614.38;;;10.71;100.00
31062;BME280;17724;53.546;9.974;2023-02-21T16:01:06;101614.63;;;10.46;100.00
31062;BME280;17724;53.546;9.974;2023-02-21T16:05:22;101613.41;;;10.42;100.00
31062;BME280;17724;53.546;9.974;2023-02-21T16:09:26;101617.22;;;10.41;100.00
31062;BME280;17724;53.546;9.974;2023-02-21T16:13:39;101605.88;;;10.25;100.00
31062;BME280;17724;53.546;9.974;2023-02-21T16:17:40;101609.59;;;10.12;100.00
31062;BME280;17724;53.546;9.974;2023-02-21T16:21:43;101614.06;;;10.14;100.00
31062;BME280;17724;53.546;9.974;2023-02-21T16:30:05;101623.47;;;10.06;100.00
31062;BME280;17724;53.546;9.974;2023-02-21T16:34:12;101624.06;;;10.08;100.00
31062;BME280;17724;53.546;9.974;2023-02-21T16:38:14;101622.41;;;10.07;100.00
31062;BME280;17724;53.546;9.974;2023-02-21T16:42:15;101626.22;;;10.06;100.00
31062;BME280;17724;53.546;9.974;2023-02-21T16:46:24;101629.56;;;10.08;100.00
31062;BME280;17724;53.546;9.974;2023-02-21T16:50:33;101636.88;;;10.14;100.00
31062;BME280;17724;53.546;9.974;2023-02-21T16:54:34;101638.16;;;10.30;100.00
31062;BME280;17724;53.546;9.974;2023-02-21T16:58:38;101642.44;;;10.26;100.00
31062;BME280;17724;53.546;9.974;2023-02-21T17:02:39;101638.06;;;10.06;100.00
31062;BME280;17724;53.546;9.974;2023-02-21T17:06:40;101640.78;;;10.06;100.00
31062;BME280;17724;53.546;9.974;2023-02-21T17:10:41;101642.84;;;10.11;100.00
31062;BME280;17724;53.546;9.974;2023-02-21T17:14:41;101650.75;;;10.19;100.00
31062;BME280;17724;53.546;9.974;2023-02-21T17:18:43;101648.47;;;10.16;100.00
31062;BME280;17724;53.546;9.974;2023-02-21T17:22:43;101650.75;;;10.19;100.00
31062;BME280;17724;53.546;9.974;2023-02-21T17:26:44;101658.16;;;10.19;100.00
31062;BME280;17724;53.546;9.974;2023-02-21T17:30:45;101657.88;;;10.08;100.00
31062;BME280;17724;53.546;9.974;2023-02-21T17:34:46;101671.06;;;10.18;100.00
31062;BME280;17724;53.546;9.974;2023-02-21T17:38:47;101678.00;;;10.21;100.00
31062;BME280;17724;53.546;9.974;2023-02-21T17:42:47;101668.13;;;10.01;100.00
31062;BME280;17724;53.546;9.974;2023-02-21T17:46:57;101674.88;;;10.17;100.00
31062;BME280;17724;53.546;9.974;2023-02-21T17:50:58;101671.63;;;10.08;100.00
31062;BME280;17724;53.546;9.974;2023-02-21T17:54:58;101681.31;;;10.11;100.00
31062;BME280;17724;53.546;9.974;2023-02-21T17:59:02;101678.56;;;10.11;100.00
31062;BME280;17724;53.546;9.974;2023-02-21T18:03:03;101682.16;;;10.11;100.00
31062;BME280;17724;53.546;9.974;2023-02-21T18:07:05;101684.66;;;10.13;100.00
31062;BME280;17724;53.546;9.974;2023-02-21T18:11:10;101694.59;;;10.14;100.00
31062;BME280;17724;53.546;9.974;2023-02-21T18:15:13;101676.56;;;10.18;100.00
31062;BME280;17724;53.546;9.974;2023-02-21T18:19:14;101694.84;;;10.24;100.00
31062;BME280;17724;53.546;9.974;2023-02-21T18:23:15;101692.31;;;10.11;100.00
31062;BME280;17724;53.546;9.974;2023-02-21T18:27:15;101695.31;;;10.09;100.00
31062;BME280;17724;53.546;9.974;2023-02-21T18:31:17;101698.94;;;10.22;100.00
31062;BME280;17724;53.546;9.974;2023-02-21T18:35:18;101702.34;;;10.17;100.00
31062;BME280;17724;53.546;9.974;2023-02-21T18:39:21;101692.41;;;10.04;100.00
31062;BME280;17724;53.546;9.974;2023-02-21T18:43:23;101699.34;;;10.07;100.00
31062;BME280;17724;53.546;9.974;2023-02-21T18:47:25;101695.59;;;9.90;100.00
31062;BME280;17724;53.546;9.974;2023-02-21T18:51:26;101701.09;;;10.01;100.00
31062;BME280;17724;53.546;9.974;2023-02-21T18:55:26;101701.25;;;10.06;100.00
31062;BME280;17724;53.546;9.974;2023-02-21T18:59:27;101699.03;;;10.15;100.00
31062;BME280;17724;53.546;9.974;2023-02-21T19:03:28;101694.44;;;10.09;100.00
31062;BME280;17724;53.546;9.974;2023-02-21T19:07:28;101703.84;;;10.01;100.00
31062;BME280;17724;53.546;9.974;2023-02-21T19:11:31;101704.09;;;10.00;100.00
31062;BME280;17724;53.546;9.974;2023-02-21T19:15:32;101698.41;;;9.83;100.00
31062;BME280;17724;53.546;9.974;2023-02-21T19:19:33;101701.06;;;9.90;100.00
31062;BME280;17724;53.546;9.974;2023-02-21T19:23:33;101706.72;;;9.95;100.00
31062;BME280;17724;53.546;9.974;2023-02-21T19:27:34;101706.34;;;9.91;100.00
31062;BME280;17724;53.546;9.974;2023-02-21T19:31:34;101708.50;;;10.01;100.00
31062;BME280;17724;53.546;9.974;2023-02-21T19:35:35;101702.09;;;10.07;100.00
31062;BME280;17724;53.546;9.974;2023-02-21T19:39:42;101707.47;;;10.02;100.00
31062;BME280;17724;53.546;9.974;2023-02-21T19:43:43;101696.94;;;9.99;100.00
31062;BME280;17724;53.546;9.974;2023-02-21T19:47:44;101704.16;;;10.11;100.00
31062;BME280;17724;53.546;9.974;2023-02-21T19:51:46;101713.09;;;10.07;100.00
31062;BME280;17724;53.546;9.974;2023-02-21T19:55:47;101717.97;;;10.05;100.00
31062;BME280;17724;53.546;9.974;2023-02-21T19:59:47;101723.94;;;10.02;100.00
31062;BME280;17724;53.546;9.974;2023-02-21T20:03:49;101722.94;;;10.15;100.00
31062;BME280;17724;53.546;9.974;2023-02-21T20:07:50;101727.09;;;10.05;100.00
31062;BME280;17724;53.546;9.974;2023-02-21T20:11:50;101727.38;;;9.97;100.00
31062;BME280;17724;53.546;9.974;2023-02-21T20:15:51;101727.53;;;10.02;100.00
31062;BME280;17724;53.546;9.974;2023-02-21T20:19:52;101725.94;;;9.95;100.00
31062;BME280;17724;53.546;9.974;2023-02-21T20:23:53;101733.34;;;9.94;100.00
31062;BME280;17724;53.546;9.974;2023-02-21T20:27:54;101730.97;;;9.98;100.00
31062;BME280;17724;53.546;9.974;2023-02-21T20:31:55;101725.31;;;9.93;100.00
31062;BME280;17724;53.546;9.974;2023-02-21T20:35:55;101736.69;;;9.96;100.00
31062;BME280;17724;53.546;9.974;2023-02-21T20:39:57;101728.56;;;9.90;100.00
31062;BME280;17724;53.546;9.974;2023-02-21T20:43:58;101735.16;;;10.00;100.00
31062;BME280;17724;53.546;9.974;2023-02-21T20:47:59;101737.16;;;9.93;100.00
31062;BME280;17724;53.546;9.974;2023-02-21T20:51:59;101714.28;;;9.81;100.00
31062;BME280;17724;53.546;9.974;2023-02-21T20:56:00;101724.69;;;10.09;100.00
31062;BME280;17724;53.546;9.974;2023-02-21T21:00:00;101716.63;;;9.77;100.00
31062;BME280;17724;53.546;9.974;2023-02-21T21:04:02;101725.38;;;9.74;100.00
31062;BME280;17724;53.546;9.974;2023-02-21T21:08:04;101710.63;;;9.69;100.00
31062;BME280;17724;53.546;9.974;2023-02-21T21:12:08;101725.19;;;9.87;100.00
31062;BME280;17724;53.546;9.974;2023-02-21T21:16:08;101732.59;;;9.87;100.00
31062;BME280;17724;53.546;9.974;2023-02-21T21:20:09;101731.56;;;9.70;100.00
31062;BME280;17724;53.546;9.974;2023-02-21T21:24:13;101729.91;;;9.80;100.00
31062;BME280;17724;53.546;9.974;2023-02-21T21:28:14;101733.09;;;9.96;100.00
31062;BME280;17724;53.546;9.974;2023-02-21T21:32:19;101735.47;;;9.92;100.00
31062;BME280;17724;53.546;9.974;2023-02-21T21:36:20;101728.31;;;9.91;100.00
31062;BME280;17724;53.546;9.974;2023-02-21T21:40:22;101727.34;;;9.85;100.00
31062;BME280;17724;53.546;9.974;2023-02-21T21:44:25;101729.84;;;9.87;100.00
31062;BME280;17724;53.546;9.974;2023-02-21T21:48:25;101731.66;;;9.93;100.00
31062;BME280;17724;53.546;9.974;2023-02-21T21:52:26;101736.03;;;9.82;100.00
31062;BME280;17724;53.546;9.974;2023-02-21T21:56:27;101725.44;;;9.86;100.00
31062;BME280;17724;53.546;9.974;2023-02-21T22:00:29;101729.63;;;9.70;100.00
31062;BME280;17724;53.546;9.974;2023-02-21T22:04:29;101720.84;;;9.80;100.00
31062;BME280;17724;53.546;9.974;2023-02-21T22:08:30;101719.94;;;9.86;100.00
31062;BME280;17724;53.546;9.974;2023-02-21T22:12:30;101724.53;;;9.74;100.00
31062;BME280;17724;53.546;9.974;2023-02-21T22:16:38;101717.63;;;9.83;100.00
31062;BME280;17724;53.546;9.974;2023-02-21T22:20:39;101723.13;;;9.83;100.00
31062;BME280;17724;53.546;9.974;2023-02-21T22:24:39;101717.25;;;9.61;100.00
31062;BME280;17724;53.546;9.974;2023-02-21T22:28:40;101712.47;;;9.75;100.00
31062;BME280;17724;53.546;9.974;2023-02-21T22:32:41;101712.53;;;9.68;100.00
31062;BME280;17724;53.546;9.974;2023-02-21T22:36:44;101718.34;;;9.78;100.00
31062;BME280;17724;53.546;9.974;2023-02-21T22:40:45;101705.69;;;9.59;100.00
31062;BME280;17724;53.546;9.974;2023-02-21T22:44:49;101694.47;;;9.60;100.00
31062;BME280;17724;53.546;9.974;2023-02-21T22:48:50;101706.41;;;9.84;100.00
31062;BME280;17724;53.546;9.974;2023-02-21T22:52:53;101704.75;;;9.83;100.00
31062;BME280;17724;53.546;9.974;2023-02-21T22:57:02;101703.16;;;9.76;100.00
31062;BME280;17724;53.546;9.974;2023-02-21T23:01:03;101701.91;;;9.90;100.00
31062;BME280;17724;53.546;9.974;2023-02-21T23:05:07;101691.63;;;9.67;100.00
31062;BME280;17724;53.546;9.974;2023-02-21T23:09:11;101693.00;;;9.76;100.00
31062;BME280;17724;53.546;9.974;2023-02-21T23:13:18;101680.78;;;9.72;100.00
31062;BME280;17724;53.546;9.974;2023-02-21T23:17:19;101696.63;;;9.88;100.00
31062;BME280;17724;53.546;9.974;2023-02-21T23:21:19;101683.66;;;9.77;100.00
31062;BME280;17724;53.546;9.974;2023-02-21T23:25:25;101686.28;;;9.72;100.00
31062;BME280;17724;53.546;9.974;2023-02-21T23:29:25;101682.44;;;9.61;100.00
31062;BME280;17724;53.546;9.974;2023-02-21T23:33:28;101677.84;;;9.55;100.00
31062;BME280;17724;53.546;9.974;2023-02-21T23:37:30;101676.06;;;9.61;100.00
31062;BME280;17724;53.546;9.974;2023-02-21T23:41:30;101680.72;;;9.79;100.00